Kansas City, Missouri
Traffic Map
Current Weather Conditions
Kansas City, Missouri
Clear
Clear
12°
Feels Like: 12°
Wind Chill: 12° Ceiling: Unl
Heat Index: 12° Visibility: 10mi
Dew Point: Wind: 7mph
Humidity: 57% Direction: 70° (ENE)
Pressure: 29.7in Gusts: 0mph
Raw Report DataKMKC 230854Z 07006KT 10SM CLR 12/04 A2970 RMK AO2 SLP052 T01220039 58004
Traffic Incident Summary
Active as of:
Severity:
Category:
InformationThere was an issue retrieving the traffic information for this location. Please try a different location or try again shortly.
Advertisements
Track Severe Weather on mobile